createdAt,value
2022-10-26T00:01:16.771Z,2.73
2022-10-26T00:06:20.747Z,3.75
2022-10-26T00:11:22.469Z,3.35
2022-10-26T00:16:27.055Z,2.58
2022-10-26T00:21:28.749Z,3.45
2022-10-26T00:26:30.703Z,3.40
2022-10-26T00:31:32.908Z,3.08
2022-10-26T00:36:34.625Z,3.22
2022-10-26T00:41:36.273Z,2.30
2022-10-26T00:46:38.538Z,3.50
2022-10-26T00:51:48.551Z,3.42
2022-10-26T00:56:54.618Z,3.75
2022-10-26T01:01:56.464Z,2.80
2022-10-26T01:06:58.335Z,3.50
2022-10-26T01:12:00.196Z,3.10
2022-10-26T01:17:20.412Z,2.90
2022-10-26T01:22:41.147Z,3.35
2022-10-26T01:27:47.425Z,3.58
2022-10-26T01:33:20.446Z,2.87
2022-10-26T01:38:40.596Z,3.97
2022-10-26T01:43:46.177Z,3.08
2022-10-26T01:48:52.099Z,4.40
2022-10-26T01:53:53.822Z,3.30
2022-10-26T01:59:25.270Z,3.57
2022-10-26T02:05:00.481Z,3.78
2022-10-26T02:10:17.474Z,3.40
2022-10-26T02:15:28.150Z,3.83
2022-10-26T02:20:43.074Z,3.50
2022-10-26T02:25:49.642Z,3.85
2022-10-26T02:30:54.562Z,3.60
2022-10-26T02:36:00.089Z,4.10
2022-10-26T02:41:04.222Z,3.53
2022-10-26T02:46:13.201Z,4.35
2022-10-26T02:51:20.313Z,3.80
2022-10-26T02:56:28.021Z,3.92
2022-10-26T03:01:31.006Z,3.78
2022-10-26T03:06:32.939Z,4.40
2022-10-26T03:11:34.690Z,3.92
2022-10-26T03:16:36.323Z,4.13
2022-10-26T03:21:38.033Z,4.40
2022-10-26T03:26:39.693Z,3.90
2022-10-26T03:31:41.364Z,4.57
2022-10-26T03:36:43.024Z,4.07
2022-10-26T03:41:44.706Z,4.07
2022-10-26T03:46:46.460Z,3.60
2022-10-26T03:51:48.178Z,3.38
2022-10-26T03:56:52.699Z,3.50
2022-10-26T04:01:57.935Z,3.80
2022-10-26T04:06:59.867Z,3.58
2022-10-26T04:12:01.585Z,4.47
2022-10-26T04:17:03.266Z,3.83
2022-10-26T04:22:04.952Z,3.30
2022-10-26T04:27:06.619Z,3.78
2022-10-26T04:32:08.334Z,4.03
2022-10-26T04:37:10.012Z,5.00
2022-10-26T04:42:11.682Z,4.45
2022-10-26T04:47:13.369Z,3.95
2022-10-26T04:52:15.003Z,4.53
2022-10-26T04:57:16.690Z,3.83
2022-10-26T05:02:18.480Z,3.70
2022-10-26T05:07:20.219Z,4.00
2022-10-26T05:12:21.903Z,3.77
2022-10-26T05:17:23.600Z,3.27
2022-10-26T05:22:25.721Z,3.83
2022-10-26T05:27:27.380Z,3.67
2022-10-26T05:32:29.119Z,4.37
2022-10-26T05:37:30.917Z,4.87
2022-10-26T05:42:32.575Z,4.23
2022-10-26T05:47:38.783Z,4.28
2022-10-26T05:52:41.447Z,4.78
2022-10-26T05:57:44.131Z,4.47
2022-10-26T06:03:12.509Z,5.07
2022-10-26T06:08:14.455Z,5.65
2022-10-26T06:13:16.531Z,6.22
2022-10-26T06:18:39.570Z,6.67
2022-10-26T06:23:55.721Z,7.05
2022-10-26T06:29:22.462Z,7.30
2022-10-26T06:34:32.529Z,4.88
2022-10-26T06:39:39.714Z,5.95
2022-10-26T06:44:41.754Z,5.70
2022-10-26T06:50:06.030Z,4.60
2022-10-26T06:55:14.530Z,5.43
2022-10-26T07:00:20.528Z,4.07
2022-10-26T07:05:22.297Z,4.07
2022-10-26T07:10:23.942Z,4.40
2022-10-26T07:15:25.805Z,4.82
2022-10-26T07:20:27.509Z,4.45
2022-10-26T07:25:29.343Z,4.28
2022-10-26T07:30:31.444Z,4.53
2022-10-26T07:35:33.915Z,4.85
2022-10-26T07:40:37.060Z,5.20
2022-10-26T07:45:40.610Z,6.00
2022-10-26T07:50:42.283Z,4.00
2022-10-26T07:55:43.960Z,4.03
2022-10-26T08:00:45.688Z,4.80
2022-10-26T08:05:49.109Z,5.33
2022-10-26T08:10:50.804Z,5.20
2022-10-26T08:15:59.613Z,4.05
2022-10-26T08:21:10.807Z,4.57
2022-10-26T08:26:14.115Z,5.63
2022-10-26T08:31:15.776Z,5.05
2022-10-26T08:36:23.748Z,5.17
2022-10-26T08:41:37.687Z,5.43
2022-10-26T08:46:44.732Z,5.28
2022-10-26T08:51:49.842Z,5.43
2022-10-26T08:56:57.324Z,5.57
2022-10-26T09:01:59.045Z,5.28
2022-10-26T09:07:18.745Z,5.10
2022-10-26T09:12:46.353Z,4.47
2022-10-26T09:18:09.050Z,5.15
2022-10-26T09:23:24.829Z,5.03
2022-10-26T09:28:30.363Z,4.80
2022-10-26T09:33:37.042Z,5.27
2022-10-26T09:39:01.257Z,4.90
2022-10-26T09:44:17.945Z,5.65
2022-10-26T09:49:23.665Z,4.73
2022-10-26T09:54:25.328Z,4.53
2022-10-26T09:59:27.297Z,4.57
2022-10-26T10:04:31.632Z,6.43
2022-10-26T10:09:33.323Z,5.63
2022-10-26T10:14:54.294Z,4.78
2022-10-26T10:20:07.636Z,4.53
2022-10-26T10:25:24.993Z,4.50
2022-10-26T10:30:32.842Z,5.38
2022-10-26T10:35:35.120Z,4.30
2022-10-26T10:40:37.033Z,4.40
2022-10-26T10:45:40.368Z,4.15
2022-10-26T10:50:52.933Z,3.90
2022-10-26T10:56:17.318Z,4.25
2022-10-26T11:01:22.325Z,4.87
2022-10-26T11:06:27.454Z,4.53
2022-10-26T11:11:32.769Z,4.47
2022-10-26T11:16:55.310Z,5.30
2022-10-26T11:21:57.022Z,4.72
2022-10-26T11:27:04.136Z,5.97
2022-10-26T11:32:15.282Z,5.30
2022-10-26T11:37:21.604Z,4.88
2022-10-26T11:42:35.340Z,5.68
2022-10-26T11:47:49.767Z,5.93
2022-10-26T11:53:12.805Z,6.00
2022-10-26T11:58:14.574Z,6.33
2022-10-26T12:03:20.832Z,5.38
2022-10-26T12:08:42.523Z,5.87
2022-10-26T12:13:57.052Z,5.32
2022-10-26T12:19:05.365Z,5.27
2022-10-26T12:24:22.341Z,5.90
2022-10-26T12:29:37.467Z,6.13
2022-10-26T12:34:39.062Z,5.88
2022-10-26T12:39:42.357Z,5.20
2022-10-26T12:44:43.995Z,6.68
2022-10-26T12:50:07.309Z,5.67
2022-10-26T12:55:23.535Z,5.47
2022-10-26T13:00:27.829Z,5.43
2022-10-26T13:05:36.583Z,6.13
2022-10-26T13:10:45.323Z,7.40
2022-10-26T13:15:54.993Z,6.07
2022-10-26T13:21:11.523Z,5.50
2022-10-26T13:26:15.665Z,5.85
2022-10-26T13:31:29.196Z,5.47
2022-10-26T13:36:57.115Z,6.20
2022-10-26T13:42:00.153Z,6.10
2022-10-26T13:47:07.820Z,5.03
2022-10-26T13:52:17.128Z,5.97
2022-10-26T13:57:42.916Z,6.07
2022-10-26T14:02:44.619Z,7.10
2022-10-26T14:07:56.991Z,6.53
2022-10-26T14:13:00.468Z,6.22
2022-10-26T14:18:04.401Z,6.20
2022-10-26T14:23:24.641Z,5.30
2022-10-26T14:28:29.696Z,5.00
2022-10-26T14:33:31.365Z,6.28
2022-10-26T14:38:42.942Z,5.03
2022-10-26T14:43:45.809Z,5.50
2022-10-26T14:48:53.199Z,6.53
2022-10-26T14:53:58.040Z,5.97
2022-10-26T14:58:59.709Z,6.17
2022-10-26T15:04:04.546Z,5.50
2022-10-26T15:09:06.925Z,6.28
2022-10-26T15:14:12.449Z,5.93
2022-10-26T15:19:16.906Z,5.68
2022-10-26T15:24:27.407Z,6.27
2022-10-26T15:29:42.210Z,5.75
2022-10-26T15:35:05.624Z,5.22
2022-10-26T15:40:08.243Z,5.85
2022-10-26T15:45:16.057Z,6.05
2022-10-26T15:50:23.423Z,5.80
2022-10-26T15:55:25.119Z,6.10
2022-10-26T16:00:26.804Z,5.70
2022-10-26T16:05:28.612Z,5.73
2022-10-26T16:10:30.419Z,5.45
2022-10-26T16:15:32.144Z,5.20
2022-10-26T16:20:34.471Z,5.43
2022-10-26T16:25:45.489Z,6.30
2022-10-26T16:30:47.191Z,6.10
2022-10-26T16:35:58.733Z,5.82
2022-10-26T16:41:02.028Z,5.70
2022-10-26T16:46:22.103Z,5.38
2022-10-26T16:51:26.510Z,6.80
2022-10-26T16:56:29.717Z,5.90
2022-10-26T17:01:31.885Z,6.03
2022-10-26T17:06:33.799Z,6.47
2022-10-26T17:11:35.584Z,7.45
2022-10-26T17:16:37.256Z,7.25
2022-10-26T17:21:39.043Z,7.23
2022-10-26T17:26:41.381Z,7.17
2022-10-26T17:31:44.106Z,7.32
2022-10-26T17:36:45.918Z,6.07
2022-10-26T17:41:47.589Z,7.50
2022-10-26T17:46:49.527Z,7.25
2022-10-26T17:51:51.296Z,7.30
2022-10-26T17:56:52.969Z,7.47
2022-10-26T18:01:54.690Z,6.90
2022-10-26T18:06:56.468Z,7.57
2022-10-26T18:12:06.319Z,7.00
2022-10-26T18:17:08.241Z,6.43
2022-10-26T18:22:10.111Z,8.00
2022-10-26T18:27:11.816Z,7.83
2022-10-26T18:32:13.473Z,7.05
2022-10-26T18:37:15.221Z,7.57
2022-10-26T18:42:16.961Z,6.53
2022-10-26T18:47:18.836Z,6.10
2022-10-26T18:52:20.751Z,6.97
2022-10-26T18:57:22.668Z,7.32
2022-10-26T19:02:24.368Z,8.25
2022-10-26T19:07:26.031Z,9.00
2022-10-26T19:12:27.672Z,8.13
2022-10-26T19:17:29.361Z,6.88
2022-10-26T19:22:31.008Z,7.07
2022-10-26T19:27:32.702Z,6.60
2022-10-26T19:32:34.504Z,6.73
2022-10-26T19:37:36.287Z,6.85
2022-10-26T19:42:37.974Z,7.47
2022-10-26T19:47:39.649Z,7.28
2022-10-26T19:52:41.323Z,7.88
2022-10-26T19:57:43.003Z,8.10
2022-10-26T20:02:44.686Z,7.73
2022-10-26T20:07:46.360Z,7.35
2022-10-26T20:12:48.810Z,8.55
2022-10-26T20:17:50.674Z,7.80
2022-10-26T20:22:52.614Z,7.30
2022-10-26T20:27:54.632Z,8.00
2022-10-26T20:32:56.931Z,8.15
2022-10-26T20:37:58.994Z,7.93
2022-10-26T20:43:00.973Z,8.93
2022-10-26T20:48:02.955Z,8.43
2022-10-26T20:53:10.960Z,8.07
2022-10-26T20:58:43.808Z,8.73
2022-10-26T21:03:45.473Z,9.77
2022-10-26T21:08:51.822Z,9.17
2022-10-26T21:13:54.585Z,8.45
2022-10-26T21:18:56.346Z,9.30
2022-10-26T21:23:58.047Z,9.07
2022-10-26T21:28:59.752Z,9.05
2022-10-26T21:34:01.432Z,9.95
2022-10-26T21:39:03.187Z,10.03
2022-10-26T21:44:09.887Z,8.90
2022-10-26T21:49:17.375Z,9.00
2022-10-26T21:54:19.007Z,8.15
2022-10-26T21:59:20.703Z,9.10
2022-10-26T22:04:22.438Z,8.02
2022-10-26T22:09:24.155Z,8.43
2022-10-26T22:14:25.825Z,7.00
2022-10-26T22:19:27.505Z,7.78
2022-10-26T22:24:29.183Z,7.95
2022-10-26T22:29:30.837Z,7.97
2022-10-26T22:34:32.533Z,7.63
2022-10-26T22:39:34.300Z,7.63
2022-10-26T22:44:36.180Z,8.25
2022-10-26T22:49:37.887Z,7.57
2022-10-26T22:54:39.628Z,8.77
2022-10-26T22:59:41.312Z,7.93
2022-10-26T23:04:43.025Z,7.38
2022-10-26T23:09:44.763Z,7.97
2022-10-26T23:14:46.460Z,7.05
2022-10-26T23:19:48.167Z,8.50
2022-10-26T23:24:49.866Z,8.38
2022-10-26T23:29:51.549Z,7.03
2022-10-26T23:34:53.231Z,7.67
2022-10-26T23:39:54.897Z,7.80
2022-10-26T23:44:56.681Z,6.70
2022-10-26T23:49:58.389Z,8.05
2022-10-26T23:55:00.095Z,8.05
